createdAt,value
2017-08-05T00:00:53.547Z,85.01
2017-08-05T00:01:53.506Z,84.82
2017-08-05T00:02:53.192Z,84.82
2017-08-05T00:03:53.463Z,85.3
2017-08-05T00:04:53.441Z,85.01
2017-08-05T00:05:53.421Z,85.01
2017-08-05T00:06:53.452Z,85.3
2017-08-05T00:07:53.381Z,84.91
2017-08-05T00:08:53.358Z,85.11
2017-08-05T00:09:53.334Z,85.35
2017-08-05T00:10:53.323Z,85.11
2017-08-05T00:11:53.351Z,85.25
2017-08-05T00:12:53.275Z,84.97
2017-08-05T00:13:53.303Z,85.06
2017-08-05T00:14:53.254Z,85.06
2017-08-05T00:15:53.219Z,85.06
2017-08-05T00:16:52.890Z,85.45
2017-08-05T00:17:53.170Z,85.45
2017-08-05T00:18:53.153Z,85.35
2017-08-05T00:19:53.132Z,85.45
2017-08-05T00:20:53.111Z,85.54
2017-08-05T00:21:53.097Z,85.74
2017-08-05T00:22:53.066Z,85.74
2017-08-05T00:23:52.746Z,86.02
2017-08-05T00:24:53.030Z,86.02
2017-08-05T00:25:52.704Z,85.83
2017-08-05T00:26:52.684Z,85.74
2017-08-05T00:27:53.018Z,85.93
2017-08-05T00:28:52.645Z,85.93
2017-08-05T00:29:52.928Z,86.21
2017-08-05T00:30:52.907Z,86.02
2017-08-05T00:31:52.579Z,86.46
2017-08-05T00:32:52.568Z,86.6
2017-08-05T00:33:52.846Z,86.17
2017-08-05T00:34:52.820Z,86.08
2017-08-05T00:35:52.801Z,86.08
2017-08-05T00:36:52.777Z,86.08
2017-08-05T00:37:52.760Z,86.08
2017-08-05T00:38:52.787Z,85.98
2017-08-05T00:39:52.416Z,86.55
2017-08-05T00:40:52.701Z,86.17
2017-08-05T00:41:52.673Z,86.55
2017-08-05T00:42:52.349Z,86.65
2017-08-05T00:43:52.636Z,86.65
2017-08-05T00:44:52.614Z,86.46
2017-08-05T00:45:52.589Z,86.74
2017-08-05T00:46:52.567Z,87.23
2017-08-05T00:47:52.552Z,87.23
2017-08-05T00:48:52.527Z,86.94
2017-08-05T00:49:52.505Z,87.03
2017-08-05T00:50:52.492Z,86.94
2017-08-05T00:51:52.468Z,86.55
2017-08-05T00:52:52.144Z,87.13
2017-08-05T00:53:52.421Z,87.41
2017-08-05T00:54:52.414Z,87.13
2017-08-05T00:55:52.384Z,87.23
2017-08-05T00:56:52.365Z,87.03
2017-08-05T00:57:52.342Z,87.13
2017-08-05T00:58:52.320Z,87.32
2017-08-05T00:59:52.298Z,87.03
2017-08-05T01:00:52.275Z,87.7
2017-08-05T01:01:52.257Z,87.61
2017-08-05T01:02:52.242Z,87.13
2017-08-05T01:03:52.214Z,87.51
2017-08-05T01:04:52.192Z,87.51
2017-08-05T01:05:52.186Z,87.7
2017-08-05T01:06:52.145Z,87.23
2017-08-05T01:07:52.127Z,87.7
2017-08-05T01:08:52.119Z,87.8
2017-08-05T01:09:52.087Z,87.51
2017-08-05T01:10:52.066Z,87.7
2017-08-05T01:11:52.049Z,87.7
2017-08-05T01:12:52.029Z,87.51
2017-08-05T01:13:52.009Z,87.41
2017-08-05T01:14:51.990Z,88.18
2017-08-05T01:15:51.960Z,87.51
2017-08-05T01:16:51.938Z,87.51
2017-08-05T01:17:51.920Z,87.51
2017-08-05T01:18:51.898Z,87.51
2017-08-05T01:19:51.874Z,87.51
2017-08-05T01:20:51.858Z,88.37
2017-08-05T01:21:51.836Z,88.09
2017-08-05T01:22:51.819Z,88.18
2017-08-05T01:23:51.792Z,88.37
2017-08-05T01:24:51.781Z,88.13
2017-08-05T01:25:51.751Z,88.33
2017-08-05T01:26:51.746Z,88.04
2017-08-05T01:27:51.714Z,88.09
2017-08-05T01:28:51.705Z,88.13
2017-08-05T01:29:51.669Z,88.18
2017-08-05T01:30:51.650Z,88.28
2017-08-05T01:31:51.627Z,88.18
2017-08-05T01:32:51.605Z,88.23
2017-08-05T01:33:51.584Z,88.37
2017-08-05T01:34:51.565Z,88.18
2017-08-05T01:35:51.545Z,88.47
2017-08-05T01:36:51.520Z,88.09
2017-08-05T01:37:51.497Z,87.99
2017-08-05T01:38:51.478Z,88.09
2017-08-05T01:39:51.458Z,88.09
2017-08-05T01:40:51.434Z,88.18
2017-08-05T01:41:51.412Z,88.04
2017-08-05T01:42:51.397Z,88.37
2017-08-05T01:43:51.373Z,88.04
2017-08-05T01:44:51.051Z,88.13
2017-08-05T01:45:51.332Z,88.13
2017-08-05T01:46:51.308Z,88.43
2017-08-05T01:47:51.287Z,88.13
2017-08-05T01:48:51.266Z,88.04
2017-08-05T01:49:51.246Z,88.13
2017-08-05T01:50:51.224Z,88.04
2017-08-05T01:51:51.205Z,88.04
2017-08-05T01:52:51.192Z,88.13
2017-08-05T01:53:51.163Z,88.13
2017-08-05T01:54:51.142Z,88.43
2017-08-05T01:55:51.119Z,88.13
2017-08-05T01:56:51.102Z,88.33
2017-08-05T01:57:51.081Z,88.13
2017-08-05T01:58:51.063Z,88.23
2017-08-05T01:59:51.042Z,88.04
2017-08-05T02:00:51.013Z,88.33
2017-08-05T02:01:50.992Z,88.18
2017-08-05T02:02:50.973Z,87.61
2017-08-05T02:03:51.005Z,87.7
2017-08-05T02:04:50.939Z,87.8
2017-08-05T02:05:50.913Z,87.8
2017-08-05T02:06:50.591Z,87.66
2017-08-05T02:07:50.566Z,87.8
2017-08-05T02:08:50.847Z,87.47
2017-08-05T02:09:50.832Z,87.47
2017-08-05T02:10:50.803Z,88.62
2017-08-05T02:11:50.786Z,88.13
2017-08-05T02:12:50.782Z,88.23
2017-08-05T02:13:50.742Z,88.09
2017-08-05T02:14:50.723Z,87.95
2017-08-05T02:15:50.700Z,88.04
2017-08-05T02:16:50.675Z,88.13
2017-08-05T02:17:50.667Z,88.13
2017-08-05T02:18:50.637Z,87.95
2017-08-05T02:19:50.612Z,88.13
2017-08-05T02:20:50.597Z,88.33
2017-08-05T02:21:50.577Z,88.33
2017-08-05T02:22:50.550Z,88.23
2017-08-05T02:23:50.581Z,87.95
2017-08-05T02:24:50.507Z,88.33
2017-08-05T02:25:50.184Z,88.13
2017-08-05T02:26:50.468Z,88.33
2017-08-05T02:27:50.448Z,88.52
2017-08-05T02:28:50.428Z,88.33
2017-08-05T02:29:50.409Z,88.52
2017-08-05T02:30:50.403Z,88.62
2017-08-05T02:31:50.363Z,88.71
2017-08-05T02:32:50.346Z,88.62
2017-08-05T02:33:50.321Z,88.71
2017-08-05T02:34:50.299Z,88.62
2017-08-05T02:35:50.276Z,88.52
2017-08-05T02:36:50.261Z,88.52
2017-08-05T02:37:50.234Z,88.66
2017-08-05T02:38:49.913Z,88.76
2017-08-05T02:39:50.190Z,88.76
2017-08-05T02:40:50.181Z,88.66
2017-08-05T02:41:50.151Z,88.56
2017-08-05T02:42:50.130Z,88.66
2017-08-05T02:43:50.116Z,88.37
2017-08-05T02:44:50.097Z,88.76
2017-08-05T02:45:50.069Z,88.76
2017-08-05T02:46:50.051Z,88.66
2017-08-05T02:47:50.024Z,88.66
2017-08-05T02:48:50.001Z,88.56
2017-08-05T02:49:49.983Z,88.66
2017-08-05T02:50:49.962Z,88.66
2017-08-05T02:51:49.938Z,88.95
2017-08-05T02:52:49.619Z,88.76
2017-08-05T02:53:49.901Z,88.37
2017-08-05T02:54:49.931Z,88.66
2017-08-05T02:55:49.858Z,88.66
2017-08-05T02:56:49.833Z,88.56
2017-08-05T02:57:49.814Z,88.56
2017-08-05T02:58:49.798Z,88.37
2017-08-05T02:59:49.827Z,88.28
2017-08-05T03:00:49.750Z,88.37
2017-08-05T03:01:49.732Z,88.23
2017-08-05T03:02:49.711Z,88.37
2017-08-05T03:03:49.687Z,88.76
2017-08-05T03:04:49.715Z,88.76
2017-08-05T03:05:49.644Z,87.99
2017-08-05T03:06:49.624Z,88.13
2017-08-05T03:07:49.600Z,88.09
2017-08-05T03:08:49.586Z,88.09
2017-08-05T03:09:49.563Z,87.99
2017-08-05T03:10:49.544Z,88.09
2017-08-05T03:11:49.519Z,87.99
2017-08-05T03:12:49.499Z,88.09
2017-08-05T03:13:49.486Z,88.09
2017-08-05T03:14:49.453Z,88.13
2017-08-05T03:15:49.436Z,88.28
2017-08-05T03:16:49.420Z,88.18
2017-08-05T03:17:49.395Z,88.23
2017-08-05T03:18:49.376Z,88.32
2017-08-05T03:19:49.352Z,88.28
2017-08-05T03:20:49.335Z,88.28
2017-08-05T03:21:49.311Z,88.51
2017-08-05T03:22:49.293Z,88.32
2017-08-05T03:23:49.272Z,88.13
2017-08-05T03:24:49.249Z,88.42
2017-08-05T03:25:48.930Z,88.32
2017-08-05T03:26:49.204Z,87.55
2017-08-05T03:27:49.193Z,87.55
2017-08-05T03:28:49.172Z,87.65
2017-08-05T03:29:49.142Z,87.74
2017-08-05T03:30:49.129Z,87.84
2017-08-05T03:31:49.102Z,87.74
2017-08-05T03:32:49.101Z,87.94
2017-08-05T03:33:49.062Z,87.27
2017-08-05T03:34:48.740Z,87.46
2017-08-05T03:35:49.023Z,87.55
2017-08-05T03:36:49.054Z,87.46
2017-08-05T03:37:48.677Z,87.74
2017-08-05T03:38:49.011Z,87.74
2017-08-05T03:39:48.948Z,87.55
2017-08-05T03:40:48.921Z,87.65
2017-08-05T03:41:48.898Z,87.46
2017-08-05T03:42:48.877Z,87.74
2017-08-05T03:43:48.862Z,87.84
2017-08-05T03:44:48.837Z,87.55
2017-08-05T03:45:48.808Z,87.37
2017-08-05T03:46:48.796Z,87.65
2017-08-05T03:47:48.778Z,87.55
2017-08-05T03:48:48.749Z,87.55
2017-08-05T03:49:48.726Z,87.46
2017-08-05T03:50:48.707Z,87.37
2017-08-05T03:51:48.688Z,87.12
2017-08-05T03:52:48.666Z,87.27
2017-08-05T03:53:48.647Z,87.08
2017-08-05T03:54:48.621Z,87.21
2017-08-05T03:55:48.601Z,87.12
2017-08-05T03:56:48.585Z,86.98
2017-08-05T03:57:48.561Z,87.08
2017-08-05T03:58:48.543Z,87.12
2017-08-05T03:59:48.520Z,87.08
2017-08-05T04:00:48.501Z,87.12
2017-08-05T04:01:48.482Z,87.17
2017-08-05T04:02:48.487Z,87.17
2017-08-05T04:03:48.442Z,87.17
2017-08-05T04:04:48.418Z,87.37
2017-08-05T04:05:48.395Z,87.46
2017-08-05T04:06:48.374Z,86.83
2017-08-05T04:07:48.359Z,87.02
2017-08-05T04:08:48.334Z,87.12
2017-08-05T04:09:48.312Z,86.83
2017-08-05T04:10:48.288Z,87.21
2017-08-05T04:11:48.273Z,87.31
2017-08-05T04:12:48.248Z,87.21
2017-08-05T04:13:48.240Z,87.31
2017-08-05T04:14:48.210Z,87.02
2017-08-05T04:15:48.199Z,87.02
2017-08-05T04:16:48.167Z,87.31
2017-08-05T04:17:48.148Z,87.12
2017-08-05T04:18:48.123Z,87.02
2017-08-05T04:19:48.110Z,87.31
2017-08-05T04:20:48.089Z,87.31
2017-08-05T04:21:48.063Z,87.21
2017-08-05T04:22:48.044Z,87.02
2017-08-05T04:23:48.077Z,87.12
2017-08-05T04:24:48.004Z,87.21
2017-08-05T04:25:47.982Z,87.21
2017-08-05T04:26:47.959Z,87.21
2017-08-05T04:27:47.640Z,86.74
2017-08-05T04:28:47.917Z,86.93
2017-08-05T04:29:47.898Z,87.12
2017-08-05T04:30:47.880Z,87.12
2017-08-05T04:31:47.857Z,87.02
2017-08-05T04:32:47.832Z,87.41
2017-08-05T04:33:47.825Z,86.64
2017-08-05T04:34:47.795Z,87.12
2017-08-05T04:35:47.773Z,87.12
2017-08-05T04:36:47.751Z,87.02
2017-08-05T04:37:47.740Z,86.93
2017-08-05T04:38:47.715Z,87.21
2017-08-05T04:39:47.693Z,87.31
2017-08-05T04:40:47.368Z,87.02
2017-08-05T04:41:47.661Z,86.83
2017-08-05T04:42:47.628Z,86.45
2017-08-05T04:43:47.609Z,86.83
2017-08-05T04:44:47.589Z,86.93
2017-08-05T04:45:47.570Z,87.02
2017-08-05T04:46:47.551Z,86.93
2017-08-05T04:47:47.530Z,86.88
2017-08-05T04:48:47.510Z,86.83
2017-08-05T04:49:47.484Z,87.21
2017-08-05T04:50:47.470Z,87.21
2017-08-05T04:51:47.444Z,87.21
2017-08-05T04:52:47.425Z,87.35
2017-08-05T04:53:47.404Z,87.12
2017-08-05T04:54:47.384Z,87.02
2017-08-05T04:55:47.362Z,86.74
2017-08-05T04:56:47.341Z,86.74
2017-08-05T04:57:47.318Z,86.97
2017-08-05T04:58:47.298Z,87.12
2017-08-05T04:59:47.277Z,87.12
2017-08-05T05:00:47.258Z,87.21
2017-08-05T05:01:47.247Z,86.93
2017-08-05T05:02:47.218Z,87.12
2017-08-05T05:03:47.192Z,86.74
2017-08-05T05:04:47.174Z,87.41
2017-08-05T05:05:47.160Z,87.45
2017-08-05T05:06:47.152Z,87.35
2017-08-05T05:07:47.113Z,87.35
2017-08-05T05:08:47.094Z,87.21
2017-08-05T05:09:47.070Z,87.16
2017-08-05T05:10:47.053Z,87.21
2017-08-05T05:11:47.032Z,87.35
2017-08-05T05:12:47.012Z,87.21
2017-08-05T05:13:46.988Z,87.79
2017-08-05T05:14:46.971Z,87.6
2017-08-05T05:15:46.958Z,87.88
2017-08-05T05:16:46.928Z,87.64
2017-08-05T05:17:46.916Z,88.65
2017-08-05T05:18:46.895Z,88.17
2017-08-05T05:19:46.867Z,88.08
2017-08-05T05:20:46.852Z,88.46
2017-08-05T05:21:46.825Z,88.46
2017-08-05T05:22:46.507Z,88.75
2017-08-05T05:23:46.788Z,88.65
2017-08-05T05:24:46.764Z,89.13
2017-08-05T05:25:46.747Z,88.94
2017-08-05T05:26:46.729Z,88.94
2017-08-05T05:27:46.702Z,88.75
2017-08-05T05:28:46.679Z,89.42
2017-08-05T05:29:46.667Z,89.42
2017-08-05T05:30:46.641Z,89.71
2017-08-05T05:31:46.622Z,89.71
2017-08-05T05:32:46.598Z,89.9
2017-08-05T05:33:46.578Z,90.47
2017-08-05T05:34:46.562Z,89.9
2017-08-05T05:35:46.539Z,89.71
2017-08-05T05:36:46.572Z,90.28
2017-08-05T05:37:46.495Z,90.67
2017-08-05T05:38:46.497Z,91.43
2017-08-05T05:39:46.454Z,91.24
2017-08-05T05:40:46.187Z,90.72
2017-08-05T05:41:46.428Z,91.24
2017-08-05T05:42:46.392Z,91.53
2017-08-05T05:43:46.376Z,91.58
2017-08-05T05:44:46.350Z,91.67
2017-08-05T05:45:46.037Z,92.15
2017-08-05T05:46:46.314Z,92.35
2017-08-05T05:47:46.287Z,92.35
2017-08-05T05:48:46.271Z,92.35
2017-08-05T05:49:46.250Z,92.44
2017-08-05T05:50:46.228Z,92.15
2017-08-05T05:51:46.208Z,93.21
2017-08-05T05:52:46.184Z,93.21
2017-08-05T05:53:46.175Z,93.11
2017-08-05T05:54:46.146Z,93.4
2017-08-05T05:55:46.129Z,93.49
2017-08-05T05:56:46.109Z,93.69
2017-08-05T05:57:46.088Z,93.69
2017-08-05T05:58:46.058Z,94.07
2017-08-05T05:59:46.089Z,93.98
2017-08-05T06:00:46.021Z,93.98
2017-08-05T06:01:46.000Z,93.59
2017-08-05T06:02:45.976Z,94.07
2017-08-05T06:03:45.955Z,93.59
2017-08-05T06:04:45.932Z,94.07
2017-08-05T06:05:45.914Z,94.26
2017-08-05T06:06:45.897Z,94.17
2017-08-05T06:07:45.869Z,94.35
2017-08-05T06:08:45.557Z,94.55
2017-08-05T06:09:45.834Z,94.26
2017-08-05T06:10:45.814Z,94.64
2017-08-05T06:11:45.791Z,94.93
2017-08-05T06:12:45.768Z,94.93
2017-08-05T06:13:45.747Z,94.93
2017-08-05T06:14:45.723Z,94.84
2017-08-05T06:15:45.705Z,94.84
2017-08-05T06:16:45.383Z,94.74
2017-08-05T06:17:45.669Z,94.64
2017-08-05T06:18:45.643Z,95.22
2017-08-05T06:19:45.625Z,95.12
2017-08-05T06:20:45.600Z,95.22
2017-08-05T06:21:45.581Z,95.31
2017-08-05T06:22:45.560Z,95.12
2017-08-05T06:23:45.536Z,95.12
2017-08-05T06:24:45.514Z,95.03
2017-08-05T06:25:45.496Z,95.22
2017-08-05T06:26:45.525Z,95.12
2017-08-05T06:27:45.462Z,95.56
2017-08-05T06:28:45.433Z,95.36
2017-08-05T06:29:45.417Z,95.26
2017-08-05T06:30:45.396Z,95.36
2017-08-05T06:31:45.373Z,95.07
2017-08-05T06:32:45.350Z,94.98
2017-08-05T06:33:45.333Z,94.98
2017-08-05T06:34:45.313Z,94.59
2017-08-05T06:35:45.346Z,94.89
2017-08-05T06:36:45.271Z,94.79
2017-08-05T06:37:45.253Z,94.59
2017-08-05T06:38:45.262Z,94.59
2017-08-05T06:39:44.907Z,94.69
2017-08-05T06:40:45.241Z,94.79
2017-08-05T06:41:45.173Z,94.79
2017-08-05T06:42:45.147Z,94.89
2017-08-05T06:43:45.137Z,94.69
2017-08-05T06:44:45.119Z,94.69
2017-08-05T06:45:45.093Z,94.89
2017-08-05T06:46:45.070Z,94.79
2017-08-05T06:47:45.043Z,94.69
2017-08-05T06:48:45.027Z,94.89
2017-08-05T06:49:44.717Z,94.59
2017-08-05T06:50:44.986Z,94.79
2017-08-05T06:51:44.968Z,94.89
2017-08-05T06:52:44.939Z,94.69
2017-08-05T06:53:44.922Z,94.69
2017-08-05T06:54:44.956Z,94.93
2017-08-05T06:55:44.880Z,94.89
2017-08-05T06:56:44.867Z,94.93
2017-08-05T06:57:44.857Z,95.03
2017-08-05T06:58:44.820Z,95.03
2017-08-05T06:59:44.804Z,95.03
2017-08-05T07:00:44.788Z,95.12
2017-08-05T07:01:44.806Z,94.93
2017-08-05T07:02:44.735Z,95.03
2017-08-05T07:03:44.939Z,95.03
2017-08-05T07:04:44.697Z,95.03
2017-08-05T07:05:44.685Z,95.03
2017-08-05T07:06:44.658Z,94.93
2017-08-05T07:07:44.639Z,94.93
2017-08-05T07:08:44.318Z,94.59
2017-08-05T07:09:44.623Z,94.93
2017-08-05T07:10:44.628Z,95.21
2017-08-05T07:11:44.554Z,94.98
2017-08-05T07:12:44.535Z,95.36
2017-08-05T07:13:44.508Z,95.84
2017-08-05T07:14:44.491Z,95.56
2017-08-05T07:15:44.478Z,95.84
2017-08-05T07:16:44.451Z,95.75
2017-08-05T07:17:44.431Z,96.42
2017-08-05T07:18:44.409Z,95.84
2017-08-05T07:19:44.386Z,96.03
2017-08-05T07:20:44.381Z,96.61
2017-08-05T07:21:44.346Z,96.42
2017-08-05T07:22:44.329Z,96.32
2017-08-05T07:23:44.307Z,96.99
2017-08-05T07:24:44.286Z,96.89
2017-08-05T07:25:44.268Z,96.42
2017-08-05T07:26:44.248Z,97.09
2017-08-05T07:27:44.224Z,96.42
2017-08-05T07:28:44.207Z,97.28
2017-08-05T07:29:44.191Z,97.38
2017-08-05T07:30:44.162Z,96.89
2017-08-05T07:31:44.161Z,96.99
2017-08-05T07:32:44.123Z,96.8
2017-08-05T07:33:44.105Z,96.89
2017-08-05T07:34:44.128Z,97.09
2017-08-05T07:35:44.065Z,96.99
2017-08-05T07:36:44.044Z,96.99
2017-08-05T07:37:44.022Z,97.18
2017-08-05T07:38:43.997Z,97.18
2017-08-05T07:39:44.029Z,97.18
2017-08-05T07:40:43.961Z,97.18
2017-08-05T07:41:43.936Z,97.47
2017-08-05T07:42:43.915Z,97.38
2017-08-05T07:43:43.899Z,97.38
2017-08-05T07:44:43.876Z,97.33
2017-08-05T07:45:43.860Z,97.38
2017-08-05T07:46:43.837Z,97.47
2017-08-05T07:47:43.815Z,97.38
2017-08-05T07:48:43.793Z,97.33
2017-08-05T07:49:43.467Z,97.04
2017-08-05T07:50:43.759Z,97.23
2017-08-05T07:51:43.730Z,97.04
2017-08-05T07:52:43.709Z,97.33
2017-08-05T07:53:43.689Z,97.52
2017-08-05T07:54:43.676Z,97.42
2017-08-05T07:55:43.651Z,97.23
2017-08-05T07:56:43.628Z,97.38
2017-08-05T07:57:43.608Z,96.75
2017-08-05T07:58:43.591Z,96.85
2017-08-05T07:59:43.568Z,96.66
2017-08-05T08:00:43.603Z,97.14
2017-08-05T08:01:43.526Z,97.04
2017-08-05T08:02:43.504Z,96.75
2017-08-05T08:03:43.490Z,97.04
2017-08-05T08:04:43.466Z,96.75
2017-08-05T08:05:43.443Z,97.04
2017-08-05T08:06:43.432Z,97.14
2017-08-05T08:07:43.406Z,96.85
2017-08-05T08:08:43.386Z,97.04
2017-08-05T08:09:43.367Z,97.04
2017-08-05T08:10:43.345Z,96.75
2017-08-05T08:11:43.336Z,97.23
2017-08-05T08:12:43.302Z,97.04
2017-08-05T08:13:43.282Z,97.23
2017-08-05T08:14:43.264Z,97.23
2017-08-05T08:15:43.240Z,96.94
2017-08-05T08:16:43.223Z,97.14
2017-08-05T08:17:43.204Z,97.42
2017-08-05T08:18:42.881Z,96.94
2017-08-05T08:19:43.168Z,97.19
2017-08-05T08:20:43.140Z,97.19
2017-08-05T08:21:43.126Z,97.42
2017-08-05T08:22:43.102Z,97.23
2017-08-05T08:23:43.081Z,97.14
2017-08-05T08:24:43.062Z,97.47
2017-08-05T08:25:43.037Z,97.47
2017-08-05T08:26:43.021Z,97.47
2017-08-05T08:27:43.000Z,97.42
2017-08-05T08:28:42.987Z,97.47
2017-08-05T08:29:42.964Z,97.38
2017-08-05T08:30:42.940Z,97.52
2017-08-05T08:31:42.929Z,97.38
2017-08-05T08:32:42.902Z,97.38
2017-08-05T08:33:42.883Z,97.19
2017-08-05T08:34:42.859Z,97.86
2017-08-05T08:35:42.839Z,97.47
2017-08-05T08:36:42.817Z,98.05
2017-08-05T08:37:42.802Z,97.95
2017-08-05T08:38:42.779Z,97.76
2017-08-05T08:39:42.766Z,98.05
2017-08-05T08:40:42.734Z,98.14
2017-08-05T08:41:42.723Z,97.95
2017-08-05T08:42:42.748Z,97.56
2017-08-05T08:43:42.679Z,97.76
2017-08-05T08:44:42.653Z,97.95
2017-08-05T08:45:42.640Z,97.95
2017-08-05T08:46:42.618Z,97.95
2017-08-05T08:47:42.598Z,97.95
2017-08-05T08:48:42.574Z,97.66
2017-08-05T08:49:42.554Z,97.66
2017-08-05T08:50:42.543Z,97.76
2017-08-05T08:51:42.521Z,97.86
2017-08-05T08:52:42.190Z,97.86
2017-08-05T08:53:42.478Z,97.76
2017-08-05T08:54:42.506Z,96.99
2017-08-05T08:55:42.432Z,97.28
2017-08-05T08:56:42.420Z,96.99
2017-08-05T08:57:42.404Z,97.47
2017-08-05T08:58:42.371Z,97.47
2017-08-05T08:59:42.405Z,97.19
2017-08-05T09:00:42.338Z,97.28
2017-08-05T09:01:42.313Z,97.09
2017-08-05T09:02:42.307Z,97.47
2017-08-05T09:03:42.278Z,97.19
2017-08-05T09:04:42.253Z,97.28
2017-08-05T09:05:41.936Z,97.42
2017-08-05T09:06:42.263Z,96.75
2017-08-05T09:07:42.191Z,96.56
2017-08-05T09:08:42.174Z,96.37
2017-08-05T09:09:42.163Z,96.47
2017-08-05T09:10:42.132Z,96.27
2017-08-05T09:11:41.815Z,96.47
2017-08-05T09:12:42.097Z,96.27
2017-08-05T09:13:42.071Z,96.37
2017-08-05T09:14:42.056Z,96.18
2017-08-05T09:15:42.036Z,95.98
2017-08-05T09:16:42.019Z,96.47
2017-08-05T09:17:41.992Z,95.7
2017-08-05T09:18:41.677Z,95.89
2017-08-05T09:19:41.961Z,95.65
2017-08-05T09:20:41.937Z,95.5
2017-08-05T09:21:41.926Z,95.41
2017-08-05T09:22:41.897Z,95.55
2017-08-05T09:23:41.880Z,95.65
2017-08-05T09:24:41.858Z,95.26
2017-08-05T09:25:41.842Z,94.98
2017-08-05T09:26:41.822Z,95.26
2017-08-05T09:27:41.797Z,95.12
2017-08-05T09:28:41.781Z,95.12
2017-08-05T09:29:41.767Z,94.83
2017-08-05T09:30:41.740Z,94.88
2017-08-05T09:31:41.728Z,95.26
2017-08-05T09:32:41.707Z,95.21
2017-08-05T09:33:41.684Z,95.21
2017-08-05T09:34:41.666Z,95.21
2017-08-05T09:35:41.639Z,95.12
2017-08-05T09:36:41.627Z,95.03
2017-08-05T09:37:41.607Z,95.03
2017-08-05T09:38:41.581Z,95.03
2017-08-05T09:39:41.567Z,94.93
2017-08-05T09:40:41.550Z,94.93
2017-08-05T09:41:41.578Z,94.93
2017-08-05T09:42:41.507Z,95.03
2017-08-05T09:43:41.478Z,95.5
2017-08-05T09:44:41.461Z,95.03
2017-08-05T09:45:41.445Z,95.41
2017-08-05T09:46:41.429Z,95.31
2017-08-05T09:47:41.408Z,95.41
2017-08-05T09:48:41.386Z,95.41
2017-08-05T09:49:41.369Z,95.31
2017-08-05T09:50:41.345Z,94.93
2017-08-05T09:51:41.381Z,95.41
2017-08-05T09:52:41.309Z,95.31
2017-08-05T09:53:41.292Z,95.31
2017-08-05T09:54:41.268Z,95.5
2017-08-05T09:55:41.244Z,95.31
2017-08-05T09:56:41.232Z,95.5
2017-08-05T09:57:41.206Z,95.5
2017-08-05T09:58:41.196Z,95.41
2017-08-05T09:59:41.168Z,95.6
2017-08-05T10:00:41.143Z,95.5
2017-08-05T10:01:41.138Z,95.03
2017-08-05T10:02:41.124Z,94.93
2017-08-05T10:03:41.087Z,95.41
2017-08-05T10:04:41.066Z,95.31
2017-08-05T10:05:40.743Z,95.36
2017-08-05T10:06:41.030Z,95.26
2017-08-05T10:07:41.013Z,95.17
2017-08-05T10:08:41.045Z,95.07
2017-08-05T10:09:40.973Z,95.21
2017-08-05T10:10:40.954Z,95.12
2017-08-05T10:11:40.981Z,95.03
2017-08-05T10:12:40.915Z,95.03
2017-08-05T10:13:40.944Z,94.49
2017-08-05T10:14:40.873Z,94.21
2017-08-05T10:15:40.856Z,94.11
2017-08-05T10:16:40.838Z,94.3
2017-08-05T10:17:40.819Z,93.91
2017-08-05T10:18:40.799Z,93.58
2017-08-05T10:19:40.776Z,93.58
2017-08-05T10:20:40.756Z,92.91
2017-08-05T10:21:40.749Z,93.19
2017-08-05T10:22:40.723Z,92.91
2017-08-05T10:23:40.711Z,92.91
2017-08-05T10:24:40.692Z,92.66
2017-08-05T10:25:40.662Z,92.08
2017-08-05T10:26:40.651Z,92.13
2017-08-05T10:27:40.644Z,91.84
2017-08-05T10:28:40.615Z,92.03
2017-08-05T10:29:40.602Z,91.27
2017-08-05T10:30:40.581Z,91.07
2017-08-05T10:31:40.562Z,91.17
2017-08-05T10:32:40.540Z,90.5
2017-08-05T10:33:40.531Z,90.88
2017-08-05T10:34:40.508Z,90.88
2017-08-05T10:35:40.499Z,90.78
2017-08-05T10:36:40.471Z,90.69
2017-08-05T10:37:40.461Z,90.59
2017-08-05T10:38:40.438Z,90.55
2017-08-05T10:39:40.424Z,89.68
2017-08-05T10:40:40.403Z,89.87
2017-08-05T10:41:40.387Z,89.39
2017-08-05T10:42:40.365Z,89.29
2017-08-05T10:43:40.349Z,89.44
2017-08-05T10:44:40.331Z,89.54
2017-08-05T10:45:40.310Z,89.35
2017-08-05T10:46:40.297Z,89.15
2017-08-05T10:47:40.304Z,89.73
2017-08-05T10:48:40.259Z,89.64
2017-08-05T10:49:40.237Z,89.83
2017-08-05T10:50:40.226Z,90.31
2017-08-05T10:51:40.196Z,90.21
2017-08-05T10:52:40.180Z,89.92
2017-08-05T10:53:40.165Z,90.21
2017-08-05T10:54:40.152Z,90.21
2017-08-05T10:55:40.185Z,90.12
2017-08-05T10:56:40.110Z,90.31
2017-08-05T10:57:40.091Z,90.5
2017-08-05T10:58:40.077Z,89.92
2017-08-05T10:59:40.063Z,90.59
2017-08-05T11:00:39.740Z,90.69
2017-08-05T11:01:40.019Z,90.59
2017-08-05T11:02:40.000Z,90.12
2017-08-05T11:03:40.003Z,90.06
2017-08-05T11:04:39.967Z,89.97
2017-08-05T11:05:39.946Z,89.97
2017-08-05T11:06:39.929Z,90.26
2017-08-05T11:07:39.907Z,89.97
2017-08-05T11:08:39.893Z,89.97
2017-08-05T11:09:39.874Z,90.55
2017-08-05T11:10:39.857Z,90.45
2017-08-05T11:11:39.837Z,90.45
2017-08-05T11:12:39.818Z,89.97
2017-08-05T11:13:39.794Z,90.16
2017-08-05T11:14:39.780Z,90.06
2017-08-05T11:15:39.764Z,90.06
2017-08-05T11:16:39.747Z,89.97
2017-08-05T11:17:39.723Z,90.06
2017-08-05T11:18:39.707Z,89.92
2017-08-05T11:19:39.691Z,89.34
2017-08-05T11:20:39.676Z,89.34
2017-08-05T11:21:39.652Z,89.92
2017-08-05T11:22:39.336Z,89.43
2017-08-05T11:23:39.621Z,89.43
2017-08-05T11:24:39.605Z,89.72
2017-08-05T11:25:39.579Z,89.72
2017-08-05T11:26:39.566Z,89.53
2017-08-05T11:27:39.572Z,89.34
2017-08-05T11:28:39.536Z,89.53
2017-08-05T11:29:39.511Z,89.15
2017-08-05T11:30:39.487Z,88.81
2017-08-05T11:31:39.477Z,89.2
2017-08-05T11:32:39.710Z,89.43
2017-08-05T11:33:39.495Z,89.2
2017-08-05T11:34:39.421Z,89.24
2017-08-05T11:35:39.403Z,88.95
2017-08-05T11:36:39.382Z,88.95
2017-08-05T11:37:39.371Z,89.01
2017-08-05T11:38:39.349Z,89.01
2017-08-05T11:39:39.329Z,89.01
2017-08-05T11:40:39.317Z,89.01
2017-08-05T11:41:39.296Z,88.91
2017-08-05T11:42:39.281Z,89.29
2017-08-05T11:43:39.254Z,89.2
2017-08-05T11:44:39.246Z,89.29
2017-08-05T11:45:39.229Z,89.49
2017-08-05T11:46:39.208Z,89.1
2017-08-05T11:47:39.191Z,89.53
2017-08-05T11:48:39.167Z,89.29
2017-08-05T11:49:39.155Z,89.34
2017-08-05T11:50:39.146Z,89.2
2017-08-05T11:51:39.120Z,89.2
2017-08-05T11:52:39.099Z,89.39
2017-08-05T11:53:39.083Z,89.49
2017-08-05T11:54:39.063Z,89.58
2017-08-05T11:55:39.119Z,89.97
2017-08-05T11:56:39.022Z,89.68
2017-08-05T11:57:39.000Z,89.68
2017-08-05T11:58:38.985Z,89.87
2017-08-05T11:59:38.964Z,89.58
2017-08-05T12:00:39.199Z,89.78
2017-08-05T12:01:39.230Z,89.49
2017-08-05T12:02:38.917Z,89.49
2017-08-05T12:03:38.895Z,89.2
2017-08-05T12:04:38.889Z,89.49
2017-08-05T12:05:38.856Z,89.58
2017-08-05T12:06:38.853Z,89.72
2017-08-05T12:07:38.819Z,89.34
2017-08-05T12:08:38.804Z,89.39
2017-08-05T12:09:38.792Z,89.05
2017-08-05T12:10:38.817Z,88.71
2017-08-05T12:11:38.750Z,88.71
2017-08-05T12:12:38.732Z,88.81
2017-08-05T12:13:38.410Z,88.71
2017-08-05T12:14:38.394Z,88.76
2017-08-05T12:15:38.673Z,88.81
2017-08-05T12:16:38.656Z,88.81
2017-08-05T12:17:38.641Z,87.94
2017-08-05T12:18:38.627Z,87.84
2017-08-05T12:19:38.601Z,87.74
2017-08-05T12:20:38.591Z,87.94
2017-08-05T12:21:38.569Z,87.65
2017-08-05T12:22:38.556Z,87.74
2017-08-05T12:23:38.529Z,87.46
2017-08-05T12:24:38.507Z,87.3
2017-08-05T12:25:38.495Z,86.98
2017-08-05T12:26:38.535Z,86.92
2017-08-05T12:27:38.464Z,86.92
2017-08-05T12:28:38.137Z,86.82
2017-08-05T12:29:38.425Z,86.73
2017-08-05T12:30:38.408Z,86.25
2017-08-05T12:31:38.389Z,86.15
2017-08-05T12:32:38.372Z,86.25
2017-08-05T12:33:38.359Z,86.25
2017-08-05T12:34:38.332Z,86.05
2017-08-05T12:35:38.318Z,86.44
2017-08-05T12:36:38.308Z,86.25
2017-08-05T12:37:38.286Z,86.15
2017-08-05T12:38:37.965Z,85.67
2017-08-05T12:39:38.250Z,85.57
2017-08-05T12:40:38.228Z,85.96
2017-08-05T12:41:37.908Z,85.82
2017-08-05T12:42:38.196Z,85.91
2017-08-05T12:43:38.429Z,86.21
2017-08-05T12:44:38.161Z,86.21
2017-08-05T12:45:37.843Z,86.4
2017-08-05T12:46:38.124Z,86.21
2017-08-05T12:47:38.110Z,86.4
2017-08-05T12:48:38.091Z,86.49
2017-08-05T12:49:38.068Z,86.54
2017-08-05T12:50:38.057Z,86.05
2017-08-05T12:51:38.038Z,85.57
2017-08-05T12:52:38.018Z,85.47
2017-08-05T12:53:38.003Z,85.47